Guadalupe, CA (93434)

11:54 PM PDT on August 19, 2014 (GMT -0700)
Santa Maria Public Airport / Captain G. Allan Hancock Field | Change Station
CLOSE
Current Station
Airport
Location: Santa Maria,
Elevation: 240 ft
Nearby Weather Stations

Elev 240 ft 34.90 °N, 120.45 °W | Updated 3 minutes ago

Mostly Cloudy
Mostly Cloudy
63 °F
Feels Like 63 °F
N
0
Wind Variable Wind from North

Today
High -- | Low -- °F
--% Chance of Precip.
Yesterday
High -- | Low -- °F
Precip. -- in
6:25 AM 7:45 PM
Waning Crescent, 24% visible
Pressure 29.90 in
Visibility 10.0 miles
Clouds Mostly Cloudy 1900 ft
Dew Point 55 °F
Humidity 75%
Rainfall 0.00 in
Snow Depth Not available.
UV 0 out of 12
Pollen 7.80 out of 12
PM2.5 Good
Flu Activity Not available.
METAR KSMX 200651Z AUTO 00000KT 10SM BKN019 17/13 A2989 RMK AO2 SLP124 T01720128 TSNO

More Conditions Fewer Conditions

Pressure 29.90 in
Visibility 10.0 miles
Clouds Mostly Cloudy 1900 ft
Dew Point 55 °F
Humidity 75%
Rainfall 0.00 in
Snow Depth Not available.
UV 0 out of 12
Pollen 7.80 out of 12
PM2.5 Good
Flu Activity Not available.
METAR KSMX 200651Z AUTO 00000KT 10SM BKN019 17/13 A2989 RMK AO2 SLP124 T01720128 TSNO

More Conditions Fewer Conditions

10-Day Weather Forecast

Almanac

Astronomy

Aug. 19, 2014 Rise Set
Actual Time 6:25 AM PDT 7:45 PM PDT
Civil Twilight 5:58 AM PDT 8:12 PM PDT
Nautical Twilight 5:27 AM PDT 8:43 PM PDT
Astronomical Twilight 4:54 AM PDT 9:16 PM PDT
Moon 1:25 AM PDT (8/19) 3:42 PM PDT (8/19)
Length of Visible Light 14h 13m
Length of Day
13h 20m
Tomorrow will be 1m 59s shorter.
Waning Crescent, 24% of the Moon is Illuminated
Aug 20
Waning Crescent
Aug 25
New
Sep 2
First Quarter
Sep 8
Full
Sep 15
Last Quarter

Community

WunderPhotos

Upload Photos

1,745,592 photos uploaded!

Nearby

Air Quality

  Air Quality AQ Index Pollutant
Yesterday Good
PM10
Yesterday Good
OZONE
Current Good
PM2.5
Tuesday Good
PM2.5
Tuesday Good
OZONE
Wednesday Good
PM2.5
Wednesday Good
OZONE

Snow Depth

Station Depth Elevation
Leavitt Lake 0 in 9400 ft
Leavitt Meadows 1 in 7200 ft
Blue Lakes 0 in 8000 ft
Forestdale Creek 0 in 8029 ft
Monitor Pass 0 in 8350 ft

Earthquake Activity

City Distance Mag. Time & Date
Malibu Beach, California 126 miles 3.4 10:03 AM PDT
2014-08-15
Kettleman City, California 81 miles 2.9 11:32 PM PDT
2014-08-14
King City, California 94 miles 2.9 8:01 PM PDT
2014-08-14
Ojai, California 89 miles 2.6 8:43 PM PDT
2014-08-13
Minimum magnitude displayed is 2.5.

Coastal Water Temperatures

Place Temperature
No Stations Reporting

Nearby Weather Stations